sensor_id;sensor_type;location;lat;lon;timestamp;P1;P2;P0
32503;PMS5003;18953;45.930;13.640;2022-12-07T00:04:39;24;23;
32503;PMS5003;18953;45.930;13.640;2022-12-07T00:09:55;20;19;
32503;PMS5003;18953;45.930;13.640;2022-12-07T00:15:12;23;19;
32503;PMS5003;18953;45.930;13.640;2022-12-07T00:20:28;22;21;
32503;PMS5003;18953;45.930;13.640;2022-12-07T00:25:45;18;15;
32503;PMS5003;18953;45.930;13.640;2022-12-07T00:31:06;14;14;
32503;PMS5003;18953;45.930;13.640;2022-12-07T00:36:22;15;14;
32503;PMS5003;18953;45.930;13.640;2022-12-07T00:41:38;15;14;
32503;PMS5003;18953;45.930;13.640;2022-12-07T00:46:54;15;13;
32503;PMS5003;18953;45.930;13.640;2022-12-07T00:52:11;10;10;
32503;PMS5003;18953;45.930;13.640;2022-12-07T00:57:27;12;10;
32503;PMS5003;18953;45.930;13.640;2022-12-07T01:02:44;14;12;
32503;PMS5003;18953;45.930;13.640;2022-12-07T01:08:03;13;12;
32503;PMS5003;18953;45.930;13.640;2022-12-07T01:13:19;14;10;
32503;PMS5003;18953;45.930;13.640;2022-12-07T01:18:36;12;11;
32503;PMS5003;18953;45.930;13.640;2022-12-07T01:23:52;12;11;
32503;PMS5003;18953;45.930;13.640;2022-12-07T01:29:09;13;11;
32503;PMS5003;18953;45.930;13.640;2022-12-07T01:34:25;11;11;
32503;PMS5003;18953;45.930;13.640;2022-12-07T01:39:42;9;8;
32503;PMS5003;18953;45.930;13.640;2022-12-07T01:45:36;13;12;
32503;PMS5003;18953;45.930;13.640;2022-12-07T01:50:15;12;10;
32503;PMS5003;18953;45.930;13.640;2022-12-07T01:55:31;9;9;
32503;PMS5003;18953;45.930;13.640;2022-12-07T02:00:48;10;8;
32503;PMS5003;18953;45.930;13.640;2022-12-07T02:06:04;7;7;
32503;PMS5003;18953;45.930;13.640;2022-12-07T02:11:20;11;9;
32503;PMS5003;18953;45.930;13.640;2022-12-07T02:16:38;11;9;
32503;PMS5003;18953;45.930;13.640;2022-12-07T02:21:55;8;8;
32503;PMS5003;18953;45.930;13.640;2022-12-07T02:27:17;8;8;
32503;PMS5003;18953;45.930;13.640;2022-12-07T02:32:27;11;9;
32503;PMS5003;18953;45.930;13.640;2022-12-07T02:37:45;11;10;
32503;PMS5003;18953;45.930;13.640;2022-12-07T02:43:01;10;9;
32503;PMS5003;18953;45.930;13.640;2022-12-07T02:48:16;8;8;
32503;PMS5003;18953;45.930;13.640;2022-12-07T02:53:33;10;8;
32503;PMS5003;18953;45.930;13.640;2022-12-07T02:58:50;9;8;
32503;PMS5003;18953;45.930;13.640;2022-12-07T03:04:08;8;8;
32503;PMS5003;18953;45.930;13.640;2022-12-07T03:09:23;7;7;
32503;PMS5003;18953;45.930;13.640;2022-12-07T03:14:39;10;8;
32503;PMS5003;18953;45.930;13.640;2022-12-07T03:20:00;8;8;
32503;PMS5003;18953;45.930;13.640;2022-12-07T03:25:11;8;7;
32503;PMS5003;18953;45.930;13.640;2022-12-07T03:30:28;6;6;
32503;PMS5003;18953;45.930;13.640;2022-12-07T03:35:45;9;8;
32503;PMS5003;18953;45.930;13.640;2022-12-07T03:41:04;8;8;
32503;PMS5003;18953;45.930;13.640;2022-12-07T03:46:20;8;7;
32503;PMS5003;18953;45.930;13.640;2022-12-07T03:51:38;10;8;
32503;PMS5003;18953;45.930;13.640;2022-12-07T03:56:53;8;8;
32503;PMS5003;18953;45.930;13.640;2022-12-07T04:02:11;7;7;
32503;PMS5003;18953;45.930;13.640;2022-12-07T04:07:26;8;7;
32503;PMS5003;18953;45.930;13.640;2022-12-07T04:12:42;7;7;
32503;PMS5003;18953;45.930;13.640;2022-12-07T04:17:59;7;7;
32503;PMS5003;18953;45.930;13.640;2022-12-07T04:23:15;6;6;
32503;PMS5003;18953;45.930;13.640;2022-12-07T04:28:32;6;6;
32503;PMS5003;18953;45.930;13.640;2022-12-07T04:33:48;7;7;
32503;PMS5003;18953;45.930;13.640;2022-12-07T04:39:05;7;6;
32503;PMS5003;18953;45.930;13.640;2022-12-07T04:44:21;9;7;
32503;PMS5003;18953;45.930;13.640;2022-12-07T04:49:38;15;14;
32503;PMS5003;18953;45.930;13.640;2022-12-07T04:54:54;16;14;
32503;PMS5003;18953;45.930;13.640;2022-12-07T05:00:11;12;11;
32503;PMS5003;18953;45.930;13.640;2022-12-07T05:05:27;16;15;
32503;PMS5003;18953;45.930;13.640;2022-12-07T05:10:43;11;8;
32503;PMS5003;18953;45.930;13.640;2022-12-07T05:16:03;16;14;
32503;PMS5003;18953;45.930;13.640;2022-12-07T05:21:20;17;16;
32503;PMS5003;18953;45.930;13.640;2022-12-07T05:26:36;14;12;
32503;PMS5003;18953;45.930;13.640;2022-12-07T05:31:53;11;11;
32503;PMS5003;18953;45.930;13.640;2022-12-07T05:37:09;12;12;
32503;PMS5003;18953;45.930;13.640;2022-12-07T05:42:26;11;10;
32503;PMS5003;18953;45.930;13.640;2022-12-07T05:47:42;11;11;
32503;PMS5003;18953;45.930;13.640;2022-12-07T05:52:59;11;10;
32503;PMS5003;18953;45.930;13.640;2022-12-07T05:58:15;12;12;
32503;PMS5003;18953;45.930;13.640;2022-12-07T06:03:36;13;12;
32503;PMS5003;18953;45.930;13.640;2022-12-07T06:08:53;18;15;
32503;PMS5003;18953;45.930;13.640;2022-12-07T06:14:09;14;13;
32503;PMS5003;18953;45.930;13.640;2022-12-07T06:19:26;15;15;
32503;PMS5003;18953;45.930;13.640;2022-12-07T06:24:42;13;12;
32503;PMS5003;18953;45.930;13.640;2022-12-07T06:29:59;14;14;
32503;PMS5003;18953;45.930;13.640;2022-12-07T06:35:15;15;13;
32503;PMS5003;18953;45.930;13.640;2022-12-07T06:40:32;17;14;
32503;PMS5003;18953;45.930;13.640;2022-12-07T06:45:48;16;16;
32503;PMS5003;18953;45.930;13.640;2022-12-07T06:51:05;19;17;
32503;PMS5003;18953;45.930;13.640;2022-12-07T06:56:21;17;16;
32503;PMS5003;18953;45.930;13.640;2022-12-07T07:01:38;19;17;
32503;PMS5003;18953;45.930;13.640;2022-12-07T07:06:54;24;21;
32503;PMS5003;18953;45.930;13.640;2022-12-07T07:12:11;31;28;
32503;PMS5003;18953;45.930;13.640;2022-12-07T07:17:28;29;25;
32503;PMS5003;18953;45.930;13.640;2022-12-07T07:22:45;32;28;
32503;PMS5003;18953;45.930;13.640;2022-12-07T07:28:02;30;26;
32503;PMS5003;18953;45.930;13.640;2022-12-07T07:33:19;26;24;
32503;PMS5003;18953;45.930;13.640;2022-12-07T07:38:35;28;28;
32503;PMS5003;18953;45.930;13.640;2022-12-07T07:43:52;29;27;
32503;PMS5003;18953;45.930;13.640;2022-12-07T07:49:08;30;27;
32503;PMS5003;18953;45.930;13.640;2022-12-07T07:54:25;32;31;
32503;PMS5003;18953;45.930;13.640;2022-12-07T07:59:41;33;31;
32503;PMS5003;18953;45.930;13.640;2022-12-07T08:04:58;40;35;
32503;PMS5003;18953;45.930;13.640;2022-12-07T08:10:14;37;35;
32503;PMS5003;18953;45.930;13.640;2022-12-07T08:15:31;37;32;
32503;PMS5003;18953;45.930;13.640;2022-12-07T08:20:48;38;32;
32503;PMS5003;18953;45.930;13.640;2022-12-07T08:26:09;35;33;
32503;PMS5003;18953;45.930;13.640;2022-12-07T08:31:25;34;31;
32503;PMS5003;18953;45.930;13.640;2022-12-07T08:36:42;32;31;
32503;PMS5003;18953;45.930;13.640;2022-12-07T08:41:58;32;31;
32503;PMS5003;18953;45.930;13.640;2022-12-07T08:47:15;30;29;
32503;PMS5003;18953;45.930;13.640;2022-12-07T08:52:31;29;27;
32503;PMS5003;18953;45.930;13.640;2022-12-07T08:57:48;28;27;
32503;PMS5003;18953;45.930;13.640;2022-12-07T09:03:04;26;25;
32503;PMS5003;18953;45.930;13.640;2022-12-07T09:08:22;24;22;
32503;PMS5003;18953;45.930;13.640;2022-12-07T09:13:38;24;20;
32503;PMS5003;18953;45.930;13.640;2022-12-07T09:18:54;21;21;
32503;PMS5003;18953;45.930;13.640;2022-12-07T09:24:11;18;16;
32503;PMS5003;18953;45.930;13.640;2022-12-07T09:29:27;13;12;
32503;PMS5003;18953;45.930;13.640;2022-12-07T09:34:49;12;11;
32503;PMS5003;18953;45.930;13.640;2022-12-07T09:40:10;9;8;
32503;PMS5003;18953;45.930;13.640;2022-12-07T09:45:28;8;7;
32503;PMS5003;18953;45.930;13.640;2022-12-07T09:50:43;8;8;
32503;PMS5003;18953;45.930;13.640;2022-12-07T09:55:59;9;9;
32503;PMS5003;18953;45.930;13.640;2022-12-07T10:01:17;7;7;
32503;PMS5003;18953;45.930;13.640;2022-12-07T10:06:32;5;5;
32503;PMS5003;18953;45.930;13.640;2022-12-07T10:12:05;6;6;
32503;PMS5003;18953;45.930;13.640;2022-12-07T10:17:21;5;5;
32503;PMS5003;18953;45.930;13.640;2022-12-07T10:22:36;5;5;
32503;PMS5003;18953;45.930;13.640;2022-12-07T10:28:16;4;4;
32503;PMS5003;18953;45.930;13.640;2022-12-07T10:33:28;4;4;
32503;PMS5003;18953;45.930;13.640;2022-12-07T10:38:43;4;4;
32503;PMS5003;18953;45.930;13.640;2022-12-07T10:43:57;5;4;
32503;PMS5003;18953;45.930;13.640;2022-12-07T10:49:20;4;4;
32503;PMS5003;18953;45.930;13.640;2022-12-07T10:54:31;4;3;
32503;PMS5003;18953;45.930;13.640;2022-12-07T11:00:06;2;2;
32503;PMS5003;18953;45.930;13.640;2022-12-07T11:05:06;5;4;
32503;PMS5003;18953;45.930;13.640;2022-12-07T11:10:21;4;4;
32503;PMS5003;18953;45.930;13.640;2022-12-07T11:15:41;4;4;
32503;PMS5003;18953;45.930;13.640;2022-12-07T11:20:55;4;3;
32503;PMS5003;18953;45.930;13.640;2022-12-07T11:26:12;4;4;
32503;PMS5003;18953;45.930;13.640;2022-12-07T11:31:28;4;3;
32503;PMS5003;18953;45.930;13.640;2022-12-07T11:36:43;4;4;
32503;PMS5003;18953;45.930;13.640;2022-12-07T11:42:00;3;3;
32503;PMS5003;18953;45.930;13.640;2022-12-07T11:47:16;5;4;
32503;PMS5003;18953;45.930;13.640;2022-12-07T11:52:32;3;3;
32503;PMS5003;18953;45.930;13.640;2022-12-07T11:57:50;3;3;
32503;PMS5003;18953;45.930;13.640;2022-12-07T12:03:07;4;3;
32503;PMS5003;18953;45.930;13.640;2022-12-07T12:08:21;4;4;
32503;PMS5003;18953;45.930;13.640;2022-12-07T12:13:48;3;3;
32503;PMS5003;18953;45.930;13.640;2022-12-07T12:18:57;3;3;
32503;PMS5003;18953;45.930;13.640;2022-12-07T12:24:11;4;4;
32503;PMS5003;18953;45.930;13.640;2022-12-07T12:29:27;3;3;
32503;PMS5003;18953;45.930;13.640;2022-12-07T12:34:57;4;4;
32503;PMS5003;18953;45.930;13.640;2022-12-07T12:41:03;2;2;
32503;PMS5003;18953;45.930;13.640;2022-12-07T12:45:18;3;3;
32503;PMS5003;18953;45.930;13.640;2022-12-07T12:50:32;3;3;
32503;PMS5003;18953;45.930;13.640;2022-12-07T13:02:15;3;3;
32503;PMS5003;18953;45.930;13.640;2022-12-07T13:06:31;3;3;
32503;PMS5003;18953;45.930;13.640;2022-12-07T13:11:39;4;3;
32503;PMS5003;18953;45.930;13.640;2022-12-07T13:16:54;4;3;
32503;PMS5003;18953;45.930;13.640;2022-12-07T13:22:33;4;4;
32503;PMS5003;18953;45.930;13.640;2022-12-07T13:27:26;4;4;
32503;PMS5003;18953;45.930;13.640;2022-12-07T13:32:43;3;3;
32503;PMS5003;18953;45.930;13.640;2022-12-07T13:38:01;2;2;
32503;PMS5003;18953;45.930;13.640;2022-12-07T13:43:16;4;4;
32503;PMS5003;18953;45.930;13.640;2022-12-07T13:48:33;5;4;
32503;PMS5003;18953;45.930;13.640;2022-12-07T13:53:50;3;3;
32503;PMS5003;18953;45.930;13.640;2022-12-07T13:59:05;4;3;
32503;PMS5003;18953;45.930;13.640;2022-12-07T14:04:30;4;3;
32503;PMS5003;18953;45.930;13.640;2022-12-07T14:09:38;3;3;
32503;PMS5003;18953;45.930;13.640;2022-12-07T14:14:54;3;3;
32503;PMS5003;18953;45.930;13.640;2022-12-07T14:20:28;6;5;
32503;PMS5003;18953;45.930;13.640;2022-12-07T14:25:27;4;4;
32503;PMS5003;18953;45.930;13.640;2022-12-07T14:30:43;4;3;
32503;PMS5003;18953;45.930;13.640;2022-12-07T14:36:01;4;4;
32503;PMS5003;18953;45.930;13.640;2022-12-07T14:41:18;4;3;
32503;PMS5003;18953;45.930;13.640;2022-12-07T14:46:34;4;4;
32503;PMS5003;18953;45.930;13.640;2022-12-07T14:51:51;3;3;
32503;PMS5003;18953;45.930;13.640;2022-12-07T14:57:08;2;2;
32503;PMS5003;18953;45.930;13.640;2022-12-07T15:02:24;4;3;
32503;PMS5003;18953;45.930;13.640;2022-12-07T15:07:40;4;4;
32503;PMS5003;18953;45.930;13.640;2022-12-07T15:12:56;4;4;
32503;PMS5003;18953;45.930;13.640;2022-12-07T15:18:13;4;4;
32503;PMS5003;18953;45.930;13.640;2022-12-07T15:23:29;4;4;
32503;PMS5003;18953;45.930;13.640;2022-12-07T15:28:46;5;4;
32503;PMS5003;18953;45.930;13.640;2022-12-07T15:34:02;4;4;
32503;PMS5003;18953;45.930;13.640;2022-12-07T15:39:19;4;4;
32503;PMS5003;18953;45.930;13.640;2022-12-07T15:44:35;4;4;
32503;PMS5003;18953;45.930;13.640;2022-12-07T15:49:51;4;4;
32503;PMS5003;18953;45.930;13.640;2022-12-07T15:55:08;5;5;
32503;PMS5003;18953;45.930;13.640;2022-12-07T16:00:24;4;3;
32503;PMS5003;18953;45.930;13.640;2022-12-07T16:05:41;4;4;
32503;PMS5003;18953;45.930;13.640;2022-12-07T16:10:57;5;5;
32503;PMS5003;18953;45.930;13.640;2022-12-07T16:16:14;7;5;
32503;PMS5003;18953;45.930;13.640;2022-12-07T16:21:30;6;6;
32503;PMS5003;18953;45.930;13.640;2022-12-07T16:26:47;7;6;
32503;PMS5003;18953;45.930;13.640;2022-12-07T16:32:03;6;6;
32503;PMS5003;18953;45.930;13.640;2022-12-07T16:37:20;6;6;
32503;PMS5003;18953;45.930;13.640;2022-12-07T16:42:36;7;7;
32503;PMS5003;18953;45.930;13.640;2022-12-07T16:47:53;7;7;
32503;PMS5003;18953;45.930;13.640;2022-12-07T16:53:09;8;7;
32503;PMS5003;18953;45.930;13.640;2022-12-07T16:58:26;11;8;
32503;PMS5003;18953;45.930;13.640;2022-12-07T17:03:42;12;10;
32503;PMS5003;18953;45.930;13.640;2022-12-07T17:08:59;11;11;
32503;PMS5003;18953;45.930;13.640;2022-12-07T17:14:15;9;9;
32503;PMS5003;18953;45.930;13.640;2022-12-07T17:19:31;11;9;
32503;PMS5003;18953;45.930;13.640;2022-12-07T17:24:48;11;9;
32503;PMS5003;18953;45.930;13.640;2022-12-07T17:30:05;9;9;
32503;PMS5003;18953;45.930;13.640;2022-12-07T17:35:21;10;10;
32503;PMS5003;18953;45.930;13.640;2022-12-07T17:40:37;10;9;
32503;PMS5003;18953;45.930;13.640;2022-12-07T17:45:54;8;8;
32503;PMS5003;18953;45.930;13.640;2022-12-07T17:51:10;9;8;
32503;PMS5003;18953;45.930;13.640;2022-12-07T17:56:27;8;8;
32503;PMS5003;18953;45.930;13.640;2022-12-07T18:01:43;8;7;
32503;PMS5003;18953;45.930;13.640;2022-12-07T18:07:03;10;9;
32503;PMS5003;18953;45.930;13.640;2022-12-07T18:12:19;8;8;
32503;PMS5003;18953;45.930;13.640;2022-12-07T18:17:36;9;8;
32503;PMS5003;18953;45.930;13.640;2022-12-07T18:22:52;8;8;
32503;PMS5003;18953;45.930;13.640;2022-12-07T18:28:09;10;8;
32503;PMS5003;18953;45.930;13.640;2022-12-07T18:33:25;8;8;
32503;PMS5003;18953;45.930;13.640;2022-12-07T18:38:42;9;8;
32503;PMS5003;18953;45.930;13.640;2022-12-07T18:43:58;8;7;
32503;PMS5003;18953;45.930;13.640;2022-12-07T18:49:15;9;7;
32503;PMS5003;18953;45.930;13.640;2022-12-07T18:54:36;7;7;
32503;PMS5003;18953;45.930;13.640;2022-12-07T18:59:53;8;8;
32503;PMS5003;18953;45.930;13.640;2022-12-07T19:05:09;6;6;
32503;PMS5003;18953;45.930;13.640;2022-12-07T19:10:26;9;7;
32503;PMS5003;18953;45.930;13.640;2022-12-07T19:15:42;11;9;
32503;PMS5003;18953;45.930;13.640;2022-12-07T19:21:01;7;7;
32503;PMS5003;18953;45.930;13.640;2022-12-07T19:26:15;8;8;
32503;PMS5003;18953;45.930;13.640;2022-12-07T19:31:32;10;7;
32503;PMS5003;18953;45.930;13.640;2022-12-07T19:36:48;6;5;
32503;PMS5003;18953;45.930;13.640;2022-12-07T19:42:05;8;8;
32503;PMS5003;18953;45.930;13.640;2022-12-07T19:47:21;6;6;
32503;PMS5003;18953;45.930;13.640;2022-12-07T19:52:38;7;7;
32503;PMS5003;18953;45.930;13.640;2022-12-07T19:57:54;13;12;
32503;PMS5003;18953;45.930;13.640;2022-12-07T20:03:11;22;21;
32503;PMS5003;18953;45.930;13.640;2022-12-07T20:08:27;25;22;
32503;PMS5003;18953;45.930;13.640;2022-12-07T20:13:44;28;26;
32503;PMS5003;18953;45.930;13.640;2022-12-07T20:19:01;33;32;
32503;PMS5003;18953;45.930;13.640;2022-12-07T20:24:19;42;38;
32503;PMS5003;18953;45.930;13.640;2022-12-07T20:29:35;45;37;
32503;PMS5003;18953;45.930;13.640;2022-12-07T20:34:52;37;34;
32503;PMS5003;18953;45.930;13.640;2022-12-07T20:40:08;35;32;
32503;PMS5003;18953;45.930;13.640;2022-12-07T20:45:24;34;33;
32503;PMS5003;18953;45.930;13.640;2022-12-07T20:50:41;34;33;
32503;PMS5003;18953;45.930;13.640;2022-12-07T20:55:57;35;34;
32503;PMS5003;18953;45.930;13.640;2022-12-07T21:01:14;35;32;
32503;PMS5003;18953;45.930;13.640;2022-12-07T21:06:30;28;27;
32503;PMS5003;18953;45.930;13.640;2022-12-07T21:11:47;38;34;
32503;PMS5003;18953;45.930;13.640;2022-12-07T21:17:04;32;29;
32503;PMS5003;18953;45.930;13.640;2022-12-07T21:22:20;29;26;
32503;PMS5003;18953;45.930;13.640;2022-12-07T21:27:37;23;22;
32503;PMS5003;18953;45.930;13.640;2022-12-07T21:32:53;29;26;
32503;PMS5003;18953;45.930;13.640;2022-12-07T21:38:10;29;27;
32503;PMS5003;18953;45.930;13.640;2022-12-07T21:43:26;35;32;
32503;PMS5003;18953;45.930;13.640;2022-12-07T21:48:47;34;30;
32503;PMS5003;18953;45.930;13.640;2022-12-07T21:54:00;33;29;
32503;PMS5003;18953;45.930;13.640;2022-12-07T21:59:16;28;26;
32503;PMS5003;18953;45.930;13.640;2022-12-07T22:04:33;23;23;
32503;PMS5003;18953;45.930;13.640;2022-12-07T22:09:49;27;24;
32503;PMS5003;18953;45.930;13.640;2022-12-07T22:15:06;29;25;
32503;PMS5003;18953;45.930;13.640;2022-12-07T22:20:22;26;22;
32503;PMS5003;18953;45.930;13.640;2022-12-07T22:25:39;22;20;
32503;PMS5003;18953;45.930;13.640;2022-12-07T22:31:00;22;18;
32503;PMS5003;18953;45.930;13.640;2022-12-07T22:36:12;20;19;
32503;PMS5003;18953;45.930;13.640;2022-12-07T22:41:29;17;16;
32503;PMS5003;18953;45.930;13.640;2022-12-07T22:46:45;21;19;
32503;PMS5003;18953;45.930;13.640;2022-12-07T22:52:01;16;15;
32503;PMS5003;18953;45.930;13.640;2022-12-07T22:57:18;19;18;
32503;PMS5003;18953;45.930;13.640;2022-12-07T23:02:34;16;15;
32503;PMS5003;18953;45.930;13.640;2022-12-07T23:07:51;14;14;
32503;PMS5003;18953;45.930;13.640;2022-12-07T23:13:08;19;17;
32503;PMS5003;18953;45.930;13.640;2022-12-07T23:18:24;19;16;
32503;PMS5003;18953;45.930;13.640;2022-12-07T23:23:40;17;14;
32503;PMS5003;18953;45.930;13.640;2022-12-07T23:28:57;24;22;
32503;PMS5003;18953;45.930;13.640;2022-12-07T23:34:13;22;20;
32503;PMS5003;18953;45.930;13.640;2022-12-07T23:39:30;20;19;
32503;PMS5003;18953;45.930;13.640;2022-12-07T23:44:46;17;15;
32503;PMS5003;18953;45.930;13.640;2022-12-07T23:50:04;19;17;
32503;PMS5003;18953;45.930;13.640;2022-12-07T23:55:20;20;18;
